Time;durP1;ratioP1;P1;durP2;ratioP2;P2;SDS_P1;SDS_P2;PMS_P1;PMS_P2;Temp;Humidity;BMP_temperature;BMP_pressure;BME280_temperature;BME280_humidity;BME280_pressure;Samples;Min_cycle;Max_cycle;Signal;HPM_P1;HPM_P2
2022/10/22 00:00:15;;;;;;;;;3.00;3.00;;;;;;;;5055211;27;8974;-87
2022/10/22 00:02:43;;;;;;;;;2.00;2.00;;;;;;;;5063473;27;8888;-87
2022/10/22 00:05:13;;;;;;;;;3.25;3.25;;;;;;;;5045338;27;8844;-87
2022/10/22 00:07:40;;;;;;;;;3.00;3.00;;;;;;;;5047829;27;8838;-87
2022/10/22 00:10:08;;;;;;;;;1.00;1.00;;;;;;;;5068904;27;8854;-87
2022/10/22 00:12:36;;;;;;;;;2.75;2.50;;;;;;;;5081125;27;8940;-87
2022/10/22 00:15:03;;;;;;;;;3.50;2.00;;;;;;;;5060414;27;8829;-86
2022/10/22 00:17:31;;;;;;;;;2.00;2.00;;;;;;;;5080171;27;8872;-87
2022/10/22 00:19:58;;;;;;;;;4.00;2.50;;;;;;;;5054128;27;8883;-88
2022/10/22 00:22:28;;;;;;;;;3.00;2.75;;;;;;;;5067250;27;8800;-86
2022/10/22 00:24:56;;;;;;;;;4.50;3.00;;;;;;;;5063288;27;8887;-85
2022/10/22 00:27:23;;;;;;;;;2.00;2.00;;;;;;;;5057077;27;8970;-85
2022/10/22 00:29:51;;;;;;;;;2.50;2.50;;;;;;;;5041786;27;8897;-85
2022/10/22 00:32:18;;;;;;;;;3.25;2.00;;;;;;;;5068777;27;8880;-84
2022/10/22 00:34:46;;;;;;;;;3.50;2.50;;;;;;;;5058130;27;8847;-86
2022/10/22 00:37:13;;;;;;;;;6.00;3.00;;;;;;;;5048524;27;8862;-84
2022/10/22 00:39:42;;;;;;;;;1.25;1.25;;;;;;;;5090916;27;8966;-84
2022/10/22 00:42:14;;;;;;;;;4.00;2.75;;;;;;;;5043717;27;8867;-86
2022/10/22 00:45:01;;;;;;;;;4.25;3.00;;;;;;;;5048693;27;8894;-87
2022/10/22 00:47:31;;;;;;;;;4.00;2.00;;;;;;;;5057185;27;8855;-88
2022/10/22 00:50:00;;;;;;;;;3.00;3.00;;;;;;;;5046202;27;8928;-87
2022/10/22 00:52:27;;;;;;;;;2.50;2.50;;;;;;;;5068889;27;8847;-87
2022/10/22 00:54:58;;;;;;;;;2.00;2.00;;;;;;;;5043126;27;8932;-88
2022/10/22 00:57:25;;;;;;;;;2.00;2.00;;;;;;;;5042528;27;8942;-84
2022/10/22 00:59:53;;;;;;;;;2.00;2.00;;;;;;;;5043198;27;8865;-86
2022/10/22 01:02:20;;;;;;;;;2.00;2.00;;;;;;;;5041266;27;8850;-86
2022/10/22 01:04:48;;;;;;;;;3.50;2.00;;;;;;;;5056270;27;9000;-86
2022/10/22 01:07:18;;;;;;;;;3.50;3.00;;;;;;;;5040159;27;8842;-87
2022/10/22 01:09:53;;;;;;;;;3.00;3.00;;;;;;;;5053341;27;8897;-87
2022/10/22 01:12:27;;;;;;;;;2.50;2.00;;;;;;;;5026756;27;8856;-86
2022/10/22 01:15:07;;;;;;;;;2.75;2.75;;;;;;;;5054505;27;8832;-87
2022/10/22 01:17:39;;;;;;;;;4.00;2.25;;;;;;;;5056748;27;8857;-85
2022/10/22 01:20:16;;;;;;;;;2.50;2.00;;;;;;;;5035374;27;8844;-86
2022/10/22 01:22:50;;;;;;;;;2.00;2.00;;;;;;;;5049138;27;8965;-86
2022/10/22 01:25:24;;;;;;;;;2.25;2.25;;;;;;;;5042855;27;8840;-86
2022/10/22 01:28:06;;;;;;;;;4.50;3.00;;;;;;;;5108918;27;8842;-86
2022/10/22 01:30:36;;;;;;;;;2.00;2.00;;;;;;;;5044824;27;8873;-86
2022/10/22 01:33:06;;;;;;;;;2.00;2.00;;;;;;;;5060623;27;8985;-85
2022/10/22 01:35:37;;;;;;;;;3.25;2.00;;;;;;;;5061094;27;8909;-85
2022/10/22 01:38:06;;;;;;;;;2.25;2.25;;;;;;;;5038701;27;8861;-87
2022/10/22 01:40:34;;;;;;;;;3.00;2.00;;;;;;;;5048907;27;8885;-87
2022/10/22 01:43:04;;;;;;;;;1.50;1.00;;;;;;;;5050110;27;8836;-90
2022/10/22 01:45:36;;;;;;;;;3.50;2.00;;;;;;;;5051098;27;8849;-87
2022/10/22 01:48:15;;;;;;;;;2.75;2.75;;;;;;;;5047111;27;8862;-87
2022/10/22 01:50:51;;;;;;;;;6.00;3.25;;;;;;;;5059096;27;8858;-87
2022/10/22 01:53:32;;;;;;;;;3.50;2.00;;;;;;;;5061510;27;8929;-86
2022/10/22 01:56:13;;;;;;;;;3.25;2.00;;;;;;;;5070023;27;8881;-86
2022/10/22 01:58:44;;;;;;;;;2.75;2.75;;;;;;;;5051850;28;8836;-86
2022/10/22 02:01:24;;;;;;;;;3.00;1.00;;;;;;;;5074008;27;8848;-86
2022/10/22 02:03:56;;;;;;;;;1.75;1.75;;;;;;;;5060298;27;8844;-86
2022/10/22 02:06:26;;;;;;;;;1.50;1.50;;;;;;;;5071164;27;8868;-86
2022/10/22 02:08:55;;;;;;;;;1.25;1.25;;;;;;;;5075375;27;8865;-86
2022/10/22 02:11:22;;;;;;;;;2.00;2.00;;;;;;;;5074090;27;8840;-86
2022/10/22 02:13:53;;;;;;;;;2.75;2.00;;;;;;;;5061657;27;8856;-86
2022/10/22 02:16:26;;;;;;;;;1.00;1.00;;;;;;;;5057633;27;9777;-86
2022/10/22 02:18:56;;;;;;;;;1.25;1.25;;;;;;;;5046408;27;8960;-87
2022/10/22 02:21:23;;;;;;;;;0.00;0.00;;;;;;;;5041670;27;8857;-87
2022/10/22 02:23:51;;;;;;;;;2.00;2.00;;;;;;;;5053152;27;8852;-86
2022/10/22 02:26:24;;;;;;;;;0.75;0.75;;;;;;;;5060722;27;8961;-86
2022/10/22 02:28:58;;;;;;;;;0.75;0.75;;;;;;;;5044075;27;8842;-85
2022/10/22 02:31:32;;;;;;;;;1.00;1.00;;;;;;;;5051014;27;8867;-86
2022/10/22 02:34:03;;;;;;;;;1.00;1.00;;;;;;;;5045211;27;8868;-86
2022/10/22 02:36:31;;;;;;;;;1.00;1.00;;;;;;;;5014545;28;8844;-87
2022/10/22 02:39:02;;;;;;;;;0.75;0.75;;;;;;;;5038398;27;8838;-88
2022/10/22 02:41:33;;;;;;;;;2.00;2.00;;;;;;;;5060360;27;8828;-87
2022/10/22 02:44:01;;;;;;;;;3.50;1.50;;;;;;;;5054039;27;8818;-86
2022/10/22 02:46:30;;;;;;;;;1.00;1.00;;;;;;;;5053931;27;8814;-87
2022/10/22 02:48:58;;;;;;;;;1.00;1.00;;;;;;;;5076688;27;8860;-87
2022/10/22 02:51:26;;;;;;;;;2.00;1.00;;;;;;;;5033378;27;8997;-87
2022/10/22 02:53:53;;;;;;;;;0.00;0.00;;;;;;;;5056421;27;8835;-87
2022/10/22 02:56:21;;;;;;;;;0.75;0.75;;;;;;;;5047588;27;8892;-86
2022/10/22 02:58:48;;;;;;;;;0.25;0.25;;;;;;;;5049201;27;8867;-86
2022/10/22 03:01:16;;;;;;;;;0.00;0.00;;;;;;;;5041061;27;8838;-86
2022/10/22 03:03:45;;;;;;;;;1.00;1.00;;;;;;;;5062862;27;8861;-86
2022/10/22 03:06:12;;;;;;;;;1.50;0.75;;;;;;;;5056306;27;8850;-85
2022/10/22 03:08:40;;;;;;;;;1.00;0.75;;;;;;;;5043964;27;8854;-85
2022/10/22 03:11:08;;;;;;;;;2.00;0.25;;;;;;;;5053469;27;8956;-86
2022/10/22 03:13:36;;;;;;;;;0.00;0.00;;;;;;;;5056481;27;8871;-87
2022/10/22 03:16:04;;;;;;;;;1.00;1.00;;;;;;;;5043076;27;8847;-87
2022/10/22 03:18:31;;;;;;;;;0.00;0.00;;;;;;;;5016976;27;8848;-86
2022/10/22 03:21:09;;;;;;;;;2.25;0.00;;;;;;;;5040086;27;8877;-85
2022/10/22 03:23:37;;;;;;;;;0.00;0.00;;;;;;;;5132449;27;8872;-86
2022/10/22 03:26:05;;;;;;;;;3.75;1.00;;;;;;;;5032826;27;8846;-86
2022/10/22 03:28:33;;;;;;;;;2.50;0.25;;;;;;;;5039778;28;8958;-86
2022/10/22 03:31:00;;;;;;;;;0.00;0.00;;;;;;;;5076515;27;8838;-87
2022/10/22 03:33:28;;;;;;;;;0.00;0.00;;;;;;;;5034656;27;8855;-87
2022/10/22 03:35:56;;;;;;;;;0.00;0.00;;;;;;;;5040401;27;9583;-86
2022/10/22 03:38:25;;;;;;;;;1.75;0.00;;;;;;;;5040204;27;8904;-86
2022/10/22 03:40:53;;;;;;;;;1.00;1.00;;;;;;;;5038063;27;8852;-87
2022/10/22 03:43:20;;;;;;;;;0.00;0.00;;;;;;;;5040720;27;8848;-88
2022/10/22 03:45:48;;;;;;;;;1.25;0.75;;;;;;;;5043124;27;8844;-87
2022/10/22 03:48:15;;;;;;;;;0.00;0.00;;;;;;;;5067860;27;8856;-87
2022/10/22 03:50:43;;;;;;;;;1.50;1.00;;;;;;;;5080835;27;8890;-88
2022/10/22 03:53:12;;;;;;;;;3.00;1.00;;;;;;;;5067908;27;8847;-87
2022/10/22 03:55:41;;;;;;;;;2.25;0.00;;;;;;;;5085964;27;8852;-88
2022/10/22 03:58:09;;;;;;;;;0.00;0.00;;;;;;;;5070506;27;8860;-87
2022/10/22 04:00:36;;;;;;;;;0.00;0.00;;;;;;;;5071105;27;8855;-87
2022/10/22 04:03:04;;;;;;;;;1.50;1.00;;;;;;;;5048118;27;8930;-88
2022/10/22 04:05:33;;;;;;;;;2.00;2.00;;;;;;;;5067719;27;8872;-88
2022/10/22 04:08:01;;;;;;;;;1.25;1.00;;;;;;;;5063850;27;8879;-87
2022/10/22 04:10:28;;;;;;;;;1.00;1.00;;;;;;;;5040884;28;8879;-87
2022/10/22 04:12:57;;;;;;;;;1.50;0.50;;;;;;;;5057977;27;8878;-86
2022/10/22 04:15:27;;;;;;;;;2.25;1.25;;;;;;;;5054188;27;8866;-87
2022/10/22 04:17:54;;;;;;;;;2.00;1.00;;;;;;;;5040548;27;8849;-88
2022/10/22 04:20:22;;;;;;;;;2.00;2.00;;;;;;;;5054914;27;8846;-87
2022/10/22 04:22:49;;;;;;;;;2.50;1.00;;;;;;;;5067835;27;8835;-85
2022/10/22 04:25:17;;;;;;;;;1.00;1.00;;;;;;;;5027846;28;8867;-84
2022/10/22 04:27:45;;;;;;;;;1.00;1.00;;;;;;;;5028325;27;8869;-86
2022/10/22 04:30:15;;;;;;;;;1.00;1.00;;;;;;;;5057316;27;8980;-85
2022/10/22 04:32:42;;;;;;;;;1.00;1.00;;;;;;;;5048896;27;8868;-86
2022/10/22 04:35:09;;;;;;;;;0.00;0.00;;;;;;;;5124058;27;9668;-86
2022/10/22 04:37:37;;;;;;;;;1.75;1.75;;;;;;;;5040989;27;8864;-86
2022/10/22 04:40:05;;;;;;;;;0.50;0.50;;;;;;;;5032847;27;8874;-85
2022/10/22 04:42:33;;;;;;;;;0.25;0.25;;;;;;;;5037064;27;8896;-86
2022/10/22 04:45:00;;;;;;;;;1.75;0.00;;;;;;;;5049960;27;8858;-85
2022/10/22 04:47:29;;;;;;;;;2.00;0.25;;;;;;;;5045457;27;9639;-86
2022/10/22 04:49:56;;;;;;;;;0.00;0.00;;;;;;;;5039084;27;8845;-86
2022/10/22 04:52:25;;;;;;;;;0.00;0.00;;;;;;;;5062757;27;8844;-87
2022/10/22 04:54:52;;;;;;;;;1.00;1.00;;;;;;;;5071386;27;9596;-87
2022/10/22 04:57:20;;;;;;;;;1.00;1.00;;;;;;;;5076769;27;8852;-87
2022/10/22 04:59:47;;;;;;;;;0.00;0.00;;;;;;;;5054585;27;8872;-88
2022/10/22 05:02:15;;;;;;;;;1.00;1.00;;;;;;;;5055674;27;8847;-87
2022/10/22 05:04:46;;;;;;;;;1.00;0.75;;;;;;;;5049281;27;8991;-87
2022/10/22 05:07:14;;;;;;;;;0.75;0.50;;;;;;;;5049871;27;8895;-89
2022/10/22 05:09:41;;;;;;;;;0.00;0.00;;;;;;;;5050188;27;8872;-87
2022/10/22 05:12:09;;;;;;;;;1.00;1.00;;;;;;;;5062490;27;8850;-85
2022/10/22 05:14:36;;;;;;;;;0.00;0.00;;;;;;;;5042089;27;8868;-89
2022/10/22 05:17:04;;;;;;;;;1.50;0.75;;;;;;;;5060283;27;8952;-87
2022/10/22 05:19:35;;;;;;;;;5.25;3.75;;;;;;;;5050211;27;8953;-87
2022/10/22 05:22:05;;;;;;;;;1.00;1.00;;;;;;;;5021983;27;8909;-86
2022/10/22 05:24:35;;;;;;;;;1.00;1.00;;;;;;;;5040946;28;8845;-89
2022/10/22 05:27:03;;;;;;;;;1.00;1.00;;;;;;;;5043802;27;8819;-89
2022/10/22 05:29:30;;;;;;;;;0.75;0.75;;;;;;;;5054589;28;8832;-89
2022/10/22 05:31:58;;;;;;;;;1.00;1.00;;;;;;;;5054758;27;8870;-89
2022/10/22 05:34:25;;;;;;;;;0.50;0.50;;;;;;;;5049721;28;8956;-90
2022/10/22 05:36:53;;;;;;;;;1.75;1.75;;;;;;;;5041841;27;8867;-88
2022/10/22 05:39:22;;;;;;;;;1.00;1.00;;;;;;;;5075344;27;8846;-88
2022/10/22 05:41:49;;;;;;;;;1.50;1.00;;;;;;;;5035418;27;8860;-87
2022/10/22 05:44:17;;;;;;;;;0.50;0.00;;;;;;;;5068597;27;8841;-87
2022/10/22 05:46:44;;;;;;;;;4.50;1.75;;;;;;;;5054962;27;8846;-87
2022/10/22 05:49:14;;;;;;;;;0.25;0.25;;;;;;;;5040116;28;8879;-89
2022/10/22 05:51:42;;;;;;;;;4.75;0.50;;;;;;;;5054711;27;9626;-89
2022/10/22 05:54:16;;;;;;;;;3.00;2.00;;;;;;;;5053626;28;8896;-89
2022/10/22 05:56:46;;;;;;;;;3.00;2.00;;;;;;;;5051548;27;8849;-89
2022/10/22 05:59:13;;;;;;;;;0.00;0.00;;;;;;;;5083841;27;8821;-89
2022/10/22 06:01:41;;;;;;;;;2.50;1.50;;;;;;;;5057519;27;8954;-88
2022/10/22 06:04:12;;;;;;;;;1.00;1.00;;;;;;;;5074821;27;8822;-90
2022/10/22 06:06:42;;;;;;;;;1.25;1.00;;;;;;;;5044507;27;8853;-89
2022/10/22 06:09:15;;;;;;;;;0.00;0.00;;;;;;;;5047988;28;8841;-88
2022/10/22 06:11:44;;;;;;;;;3.00;1.00;;;;;;;;5049777;27;8849;-82
2022/10/22 06:14:11;;;;;;;;;1.00;1.00;;;;;;;;5061975;27;8846;-83
2022/10/22 06:16:39;;;;;;;;;3.00;1.00;;;;;;;;5057310;27;8856;-73
2022/10/22 06:19:07;;;;;;;;;3.25;0.25;;;;;;;;5080178;27;8842;-74
2022/10/22 06:21:35;;;;;;;;;1.00;1.00;;;;;;;;5057979;27;8986;-81
2022/10/22 06:24:03;;;;;;;;;3.50;2.00;;;;;;;;5032502;27;8883;-77
2022/10/22 06:26:32;;;;;;;;;2.75;2.50;;;;;;;;5024773;27;8884;-78
2022/10/22 06:29:01;;;;;;;;;1.00;1.00;;;;;;;;5034325;27;8844;-80
2022/10/22 06:31:35;;;;;;;;;1.00;1.00;;;;;;;;5037785;27;8857;-78
2022/10/22 06:34:03;;;;;;;;;2.25;1.00;;;;;;;;5058506;27;8853;-78
2022/10/22 06:36:30;;;;;;;;;1.75;1.75;;;;;;;;5035731;28;8836;-79
2022/10/22 06:38:58;;;;;;;;;2.50;1.25;;;;;;;;5038641;27;8849;-80
2022/10/22 06:41:26;;;;;;;;;1.25;1.25;;;;;;;;5034873;27;8883;-80
2022/10/22 06:43:54;;;;;;;;;1.75;1.75;;;;;;;;5044542;27;8832;-79
2022/10/22 06:46:24;;;;;;;;;3.00;3.00;;;;;;;;5028841;27;8867;-77
2022/10/22 06:48:53;;;;;;;;;2.75;2.00;;;;;;;;5042782;27;8870;-84
2022/10/22 06:51:20;;;;;;;;;2.25;2.00;;;;;;;;5032142;27;8855;-76
2022/10/22 06:53:48;;;;;;;;;1.00;1.00;;;;;;;;5023303;27;8849;-76
2022/10/22 06:56:17;;;;;;;;;1.00;1.00;;;;;;;;5053766;27;8923;-75
2022/10/22 06:58:46;;;;;;;;;3.00;1.00;;;;;;;;5051670;27;8891;-75
2022/10/22 07:01:15;;;;;;;;;2.00;2.00;;;;;;;;5040625;27;8866;-76
2022/10/22 07:03:46;;;;;;;;;1.00;1.00;;;;;;;;5056714;27;8930;-82
2022/10/22 07:06:15;;;;;;;;;2.00;1.00;;;;;;;;5080514;27;8863;-82
2022/10/22 07:08:43;;;;;;;;;3.00;1.25;;;;;;;;5049110;27;8856;-82
2022/10/22 07:11:13;;;;;;;;;1.75;1.75;;;;;;;;5043093;27;8866;-82
2022/10/22 07:13:40;;;;;;;;;0.50;0.50;;;;;;;;5071180;27;8830;-82
2022/10/22 07:16:08;;;;;;;;;1.00;1.00;;;;;;;;5052293;27;8999;-81
2022/10/22 07:18:37;;;;;;;;;2.00;2.00;;;;;;;;5033873;27;8819;-83
2022/10/22 07:21:07;;;;;;;;;1.50;1.00;;;;;;;;5020649;27;8880;-84
2022/10/22 07:23:34;;;;;;;;;2.75;1.25;;;;;;;;5065894;27;8861;-82
2022/10/22 07:26:02;;;;;;;;;3.50;2.00;;;;;;;;5048770;27;8932;-82
2022/10/22 07:28:33;;;;;;;;;1.00;1.00;;;;;;;;5059440;27;8849;-79
2022/10/22 07:31:01;;;;;;;;;2.25;2.00;;;;;;;;5043800;27;8874;-77
2022/10/22 07:33:28;;;;;;;;;3.00;3.00;;;;;;;;5039666;27;8838;-79
2022/10/22 07:35:59;;;;;;;;;1.75;1.50;;;;;;;;5041956;27;8855;-78
2022/10/22 07:38:28;;;;;;;;;0.00;0.00;;;;;;;;5059390;27;9608;-78
2022/10/22 07:40:57;;;;;;;;;1.50;1.00;;;;;;;;5026952;27;8846;-80
2022/10/22 07:43:24;;;;;;;;;2.50;1.25;;;;;;;;5027015;28;8856;-80
2022/10/22 07:45:54;;;;;;;;;1.75;1.75;;;;;;;;5039747;27;8822;-77
2022/10/22 07:48:23;;;;;;;;;1.25;1.00;;;;;;;;5043820;27;8949;-77
2022/10/22 07:50:51;;;;;;;;;2.50;1.00;;;;;;;;5013847;28;8879;-77
2022/10/22 07:53:20;;;;;;;;;0.75;0.75;;;;;;;;5046204;27;8860;-78
2022/10/22 07:55:50;;;;;;;;;1.75;1.75;;;;;;;;5040064;27;8869;-77
2022/10/22 07:58:18;;;;;;;;;6.00;2.00;;;;;;;;5032005;27;8822;-78
2022/10/22 08:00:46;;;;;;;;;1.25;1.25;;;;;;;;5037319;27;9059;-77
2022/10/22 08:03:14;;;;;;;;;1.00;1.00;;;;;;;;5031509;27;8994;-78
2022/10/22 08:05:42;;;;;;;;;1.00;1.00;;;;;;;;5032481;27;8875;-79
2022/10/22 08:08:10;;;;;;;;;1.00;0.00;;;;;;;;5058189;27;8887;-79
2022/10/22 08:10:38;;;;;;;;;1.00;1.00;;;;;;;;5046543;27;9824;-81
2022/10/22 08:13:08;;;;;;;;;1.25;1.00;;;;;;;;5006553;27;8887;-81
2022/10/22 08:15:36;;;;;;;;;1.00;1.00;;;;;;;;5016402;28;8834;-80
2022/10/22 08:18:04;;;;;;;;;1.50;1.25;;;;;;;;5019841;27;8830;-78
2022/10/22 08:20:31;;;;;;;;;1.50;1.00;;;;;;;;5026220;28;8872;-82
2022/10/22 08:22:59;;;;;;;;;1.25;1.25;;;;;;;;4999721;28;8865;-79
2022/10/22 08:25:27;;;;;;;;;2.50;1.00;;;;;;;;5029399;28;8837;-80
2022/10/22 08:27:54;;;;;;;;;2.00;2.00;;;;;;;;5016975;28;8861;-79
2022/10/22 08:30:23;;;;;;;;;1.00;1.00;;;;;;;;5007081;28;9011;-82
2022/10/22 08:32:51;;;;;;;;;1.75;1.00;;;;;;;;5014704;28;8856;-82
2022/10/22 08:35:18;;;;;;;;;2.00;2.00;;;;;;;;5019292;28;8844;-82
2022/10/22 08:37:46;;;;;;;;;2.00;2.00;;;;;;;;5014541;28;8848;-82
2022/10/22 08:40:20;;;;;;;;;1.25;1.25;;;;;;;;5016042;28;8854;-81
2022/10/22 08:43:06;;;;;;;;;5.00;2.25;;;;;;;;5021939;28;8859;-80
2022/10/22 08:45:41;;;;;;;;;1.25;1.25;;;;;;;;5009996;28;8981;-81
2022/10/22 08:48:16;;;;;;;;;2.25;1.50;;;;;;;;5019120;28;8842;-81
2022/10/22 08:50:49;;;;;;;;;2.00;1.50;;;;;;;;5029064;28;8897;-80
2022/10/22 08:53:22;;;;;;;;;3.00;1.50;;;;;;;;5040174;27;8891;-80
2022/10/22 08:55:50;;;;;;;;;1.00;1.00;;;;;;;;5023057;28;8867;-83
2022/10/22 08:58:23;;;;;;;;;1.75;1.75;;;;;;;;5014174;28;8973;-80
2022/10/22 09:00:59;;;;;;;;;1.00;1.00;;;;;;;;5014661;28;8900;-77
2022/10/22 09:03:38;;;;;;;;;3.60;0.20;;;;;;;;5018141;28;8840;-80
2022/10/22 09:06:11;;;;;;;;;2.25;2.25;;;;;;;;5038437;27;8980;-79
2022/10/22 09:08:39;;;;;;;;;4.00;2.00;;;;;;;;5018964;28;8880;-80
2022/10/22 09:11:25;;;;;;;;;1.00;1.00;;;;;;;;5110978;27;8862;-80
2022/10/22 09:13:54;;;;;;;;;1.60;1.20;;;;;;;;5084474;27;9640;-80
2022/10/22 09:16:34;;;;;;;;;2.60;1.00;;;;;;;;5073058;27;8854;-80
2022/10/22 09:19:10;;;;;;;;;1.20;1.20;;;;;;;;5078321;27;8964;-80
2022/10/22 09:21:50;;;;;;;;;2.80;1.60;;;;;;;;5046978;27;8872;-81
2022/10/22 09:24:32;;;;;;;;;1.00;1.00;;;;;;;;5059843;27;8839;-80
2022/10/22 09:27:00;;;;;;;;;1.20;0.80;;;;;;;;5063566;27;8854;-79
2022/10/22 09:29:33;;;;;;;;;2.00;2.00;;;;;;;;5048005;27;8837;-79
2022/10/22 09:32:05;;;;;;;;;3.00;1.20;;;;;;;;5043587;27;8882;-82
2022/10/22 09:34:34;;;;;;;;;1.00;1.00;;;;;;;;5057389;27;8854;-82
2022/10/22 09:37:06;;;;;;;;;5.40;1.00;;;;;;;;5028809;28;8845;-82
2022/10/22 09:39:38;;;;;;;;;2.00;1.00;;;;;;;;5051277;27;8885;-79
2022/10/22 09:42:06;;;;;;;;;5.20;1.80;;;;;;;;5031613;27;8962;-78
2022/10/22 09:44:36;;;;;;;;;1.80;1.00;;;;;;;;5035682;27;8991;-78
2022/10/22 09:47:08;;;;;;;;;2.40;2.00;;;;;;;;5041449;27;8869;-79
2022/10/22 09:49:36;;;;;;;;;1.20;1.20;;;;;;;;5046618;27;8845;-79
2022/10/22 09:52:08;;;;;;;;;4.80;1.80;;;;;;;;5035280;27;8821;-78
2022/10/22 09:54:40;;;;;;;;;1.00;1.00;;;;;;;;5022103;27;8874;-76
2022/10/22 09:57:16;;;;;;;;;1.40;1.40;;;;;;;;5064171;27;8870;-78
2022/10/22 09:59:47;;;;;;;;;6.00;5.00;;;;;;;;5054901;27;8880;-76
2022/10/22 10:02:20;;;;;;;;;1.80;1.80;;;;;;;;5048872;27;8859;-75
2022/10/22 10:04:49;;;;;;;;;1.60;1.60;;;;;;;;5075793;27;8850;-75
2022/10/22 10:07:19;;;;;;;;;1.60;1.60;;;;;;;;5041954;27;8822;-75
2022/10/22 10:09:47;;;;;;;;;1.00;1.00;;;;;;;;5057775;27;8839;-75
2022/10/22 10:12:25;;;;;;;;;2.40;2.40;;;;;;;;5047289;27;8828;-76
2022/10/22 10:15:00;;;;;;;;;1.00;1.00;;;;;;;;5055965;27;8928;-75
2022/10/22 10:17:36;;;;;;;;;1.00;1.00;;;;;;;;5038330;27;8862;-77
2022/10/22 10:20:21;;;;;;;;;1.40;1.00;;;;;;;;5056837;27;8832;-75
2022/10/22 10:22:55;;;;;;;;;0.20;0.20;;;;;;;;5074117;27;8832;-76
2022/10/22 10:25:37;;;;;;;;;2.20;1.40;;;;;;;;5066883;27;8878;-76
2022/10/22 10:28:19;;;;;;;;;2.60;1.00;;;;;;;;5032474;27;8854;-74
2022/10/22 10:30:55;;;;;;;;;1.00;1.00;;;;;;;;5050009;27;8828;-76
2022/10/22 10:33:34;;;;;;;;;1.00;1.00;;;;;;;;5040033;27;8876;-75
2022/10/22 10:36:06;;;;;;;;;2.00;0.00;;;;;;;;5062979;27;9603;-81
2022/10/22 10:38:42;;;;;;;;;1.80;0.60;;;;;;;;5060365;27;8974;-77
2022/10/22 10:41:23;;;;;;;;;1.20;1.20;;;;;;;;5048947;27;8859;-76
2022/10/22 10:44:18;;;;;;;;;3.60;2.60;;;;;;;;5040566;27;8978;-81
2022/10/22 10:46:53;;;;;;;;;1.40;1.00;;;;;;;;5052486;27;8887;-78
2022/10/22 10:49:25;;;;;;;;;0.00;0.00;;;;;;;;5040771;27;8847;-75
2022/10/22 10:51:58;;;;;;;;;0.40;0.00;;;;;;;;5054314;27;9371;-77
2022/10/22 10:54:40;;;;;;;;;1.20;1.00;;;;;;;;5040576;27;8883;-76
2022/10/22 10:57:14;;;;;;;;;0.80;0.80;;;;;;;;5043889;27;8844;-76
2022/10/22 10:59:54;;;;;;;;;3.00;0.20;;;;;;;;5048307;27;8880;-77
2022/10/22 11:02:49;;;;;;;;;0.80;0.80;;;;;;;;5036123;27;8865;-76
2022/10/22 11:05:28;;;;;;;;;2.60;1.40;;;;;;;;5028062;27;8908;-74
2022/10/22 11:08:00;;;;;;;;;1.60;1.00;;;;;;;;5048326;27;8846;-76
2022/10/22 11:10:30;;;;;;;;;1.00;1.00;;;;;;;;5046244;27;8815;-76
2022/10/22 11:13:03;;;;;;;;;0.40;0.40;;;;;;;;5051436;27;8845;-77
2022/10/22 11:15:34;;;;;;;;;2.20;0.80;;;;;;;;5038498;27;8872;-74
2022/10/22 11:18:08;;;;;;;;;2.00;1.40;;;;;;;;5033450;27;8901;-78
2022/10/22 11:21:07;;;;;;;;;1.80;1.00;;;;;;;;5034184;27;8882;-76
2022/10/22 11:23:40;;;;;;;;;1.60;1.00;;;;;;;;5043191;27;8970;-77
2022/10/22 11:26:13;;;;;;;;;1.00;1.00;;;;;;;;5060549;27;8963;-77
2022/10/22 11:28:44;;;;;;;;;1.40;1.40;;;;;;;;5040706;27;8833;-79
2022/10/22 11:31:15;;;;;;;;;0.00;0.00;;;;;;;;5036640;27;8883;-78
2022/10/22 11:33:48;;;;;;;;;0.00;0.00;;;;;;;;5054281;27;8845;-79
2022/10/22 11:36:19;;;;;;;;;1.80;1.80;;;;;;;;5045235;27;8850;-76
2022/10/22 11:38:47;;;;;;;;;1.00;1.00;;;;;;;;5033867;27;8846;-76
2022/10/22 11:41:18;;;;;;;;;1.00;0.60;;;;;;;;5044825;27;8986;-76
2022/10/22 11:44:05;;;;;;;;;1.00;1.00;;;;;;;;5039026;27;8855;-75
2022/10/22 11:46:46;;;;;;;;;1.00;1.00;;;;;;;;5044053;27;8880;-75
2022/10/22 11:49:23;;;;;;;;;1.00;1.00;;;;;;;;5046876;27;8846;-75
2022/10/22 11:52:05;;;;;;;;;1.00;1.00;;;;;;;;5059833;27;8827;-75
2022/10/22 11:54:42;;;;;;;;;1.00;1.00;;;;;;;;5045367;27;9619;-78
2022/10/22 11:57:24;;;;;;;;;1.00;1.00;;;;;;;;5038117;27;8892;-76
2022/10/22 11:59:53;;;;;;;;;3.40;1.00;;;;;;;;5045832;27;8848;-76
2022/10/22 12:02:50;;;;;;;;;0.60;0.60;;;;;;;;5068961;27;8880;-76
2022/10/22 12:05:42;;;;;;;;;1.00;1.00;;;;;;;;5061902;27;8839;-76
2022/10/22 12:08:23;;;;;;;;;0.00;0.00;;;;;;;;5058548;27;8848;-77
2022/10/22 12:11:06;;;;;;;;;0.80;0.80;;;;;;;;5063110;27;8966;-77
2022/10/22 12:13:52;;;;;;;;;2.00;1.00;;;;;;;;5038557;27;8881;-76
2022/10/22 12:16:23;;;;;;;;;1.20;0.00;;;;;;;;5033632;27;8841;-77
2022/10/22 12:18:53;;;;;;;;;1.60;0.80;;;;;;;;5014882;28;8857;-77
2022/10/22 12:21:21;;;;;;;;;1.80;1.00;;;;;;;;5017968;28;8832;-77
2022/10/22 12:23:52;;;;;;;;;0.60;0.60;;;;;;;;5053462;28;8856;-76
2022/10/22 12:26:24;;;;;;;;;1.40;1.00;;;;;;;;5039236;28;9755;-75
2022/10/22 12:28:52;;;;;;;;;0.40;0.40;;;;;;;;5025362;28;8856;-77
2022/10/22 12:31:19;;;;;;;;;0.40;0.00;;;;;;;;5031809;27;8961;-77
2022/10/22 12:33:48;;;;;;;;;0.60;0.60;;;;;;;;5048558;27;8934;-76
2022/10/22 12:36:19;;;;;;;;;1.00;1.00;;;;;;;;5022344;28;9004;-77
2022/10/22 12:38:49;;;;;;;;;0.60;0.60;;;;;;;;5043786;28;8888;-76
2022/10/22 12:41:17;;;;;;;;;0.00;0.00;;;;;;;;5011508;28;8948;-76
2022/10/22 12:43:45;;;;;;;;;0.00;0.00;;;;;;;;5029617;27;8841;-77
2022/10/22 12:46:15;;;;;;;;;0.80;0.80;;;;;;;;5012596;28;8834;-79
2022/10/22 12:48:44;;;;;;;;;1.00;1.00;;;;;;;;5035534;28;8886;-77
2022/10/22 12:51:18;;;;;;;;;2.80;2.00;;;;;;;;5025934;27;8861;-76
2022/10/22 12:53:49;;;;;;;;;1.00;1.00;;;;;;;;5029043;28;8891;-78
2022/10/22 12:56:22;;;;;;;;;1.40;1.00;;;;;;;;5029023;27;8860;-78
2022/10/22 12:58:53;;;;;;;;;0.80;0.80;;;;;;;;5021832;28;8863;-78
2022/10/22 13:01:21;;;;;;;;;0.40;0.40;;;;;;;;5024437;28;8886;-78
2022/10/22 13:03:50;;;;;;;;;0.20;0.20;;;;;;;;5026731;28;8868;-78
2022/10/22 13:06:25;;;;;;;;;2.40;1.20;;;;;;;;5020633;28;8824;-78
2022/10/22 13:09:16;;;;;;;;;1.20;1.20;;;;;;;;5110869;27;9372;-77
2022/10/22 13:11:51;;;;;;;;;1.00;1.00;;;;;;;;5046630;27;8869;-77
2022/10/22 13:14:27;;;;;;;;;0.60;0.60;;;;;;;;5063131;27;8855;-77
2022/10/22 13:17:10;;;;;;;;;0.80;0.80;;;;;;;;5043330;27;8845;-77
2022/10/22 13:19:41;;;;;;;;;1.80;0.60;;;;;;;;5045877;27;8856;-79
2022/10/22 13:22:29;;;;;;;;;1.40;1.20;;;;;;;;5052533;28;8817;-78
2022/10/22 13:24:59;;;;;;;;;1.00;1.00;;;;;;;;5052029;27;8828;-78
2022/10/22 13:27:28;;;;;;;;;1.20;1.20;;;;;;;;5048449;27;8828;-78
2022/10/22 13:29:56;;;;;;;;;1.40;0.80;;;;;;;;5076137;27;8864;-78
2022/10/22 13:32:29;;;;;;;;;2.60;1.40;;;;;;;;5056876;27;9257;-79
2022/10/22 13:35:00;;;;;;;;;3.80;2.60;;;;;;;;5050111;27;8834;-78
2022/10/22 13:37:30;;;;;;;;;1.20;1.20;;;;;;;;5051887;27;8849;-79
2022/10/22 13:39:59;;;;;;;;;1.00;1.00;;;;;;;;5058928;27;8834;-78
2022/10/22 13:42:27;;;;;;;;;2.40;1.00;;;;;;;;5038002;27;8838;-79
2022/10/22 13:44:55;;;;;;;;;1.00;1.00;;;;;;;;5042213;27;8865;-78
2022/10/22 13:47:28;;;;;;;;;1.40;1.00;;;;;;;;5060627;27;9554;-78
2022/10/22 13:49:57;;;;;;;;;2.40;1.80;;;;;;;;5049698;27;8948;-78
2022/10/22 13:52:31;;;;;;;;;3.80;1.80;;;;;;;;5063597;27;9673;-78
2022/10/22 13:55:00;;;;;;;;;2.00;2.00;;;;;;;;5067144;27;8831;-79
2022/10/22 13:57:27;;;;;;;;;2.00;2.00;;;;;;;;5052920;28;8961;-78
2022/10/22 13:59:54;;;;;;;;;0.80;0.80;;;;;;;;5038671;27;8878;-77
2022/10/22 14:02:23;;;;;;;;;1.40;0.80;;;;;;;;5055028;27;8986;-78
2022/10/22 14:04:51;;;;;;;;;1.20;1.20;;;;;;;;5049802;27;8836;-78
2022/10/22 14:07:19;;;;;;;;;1.00;1.00;;;;;;;;5058274;28;9725;-77
2022/10/22 14:09:46;;;;;;;;;1.40;1.40;;;;;;;;5050970;27;9633;-78
2022/10/22 14:12:17;;;;;;;;;1.80;1.00;;;;;;;;5045683;28;9690;-77
2022/10/22 14:14:45;;;;;;;;;2.00;2.00;;;;;;;;5030215;27;8871;-78
2022/10/22 14:17:15;;;;;;;;;0.00;0.00;;;;;;;;5054221;27;8844;-77
2022/10/22 14:19:45;;;;;;;;;0.60;0.60;;;;;;;;5060236;27;8835;-76
2022/10/22 14:22:15;;;;;;;;;0.80;0.80;;;;;;;;5043477;27;8912;-76
2022/10/22 14:24:42;;;;;;;;;1.20;1.20;;;;;;;;5045935;27;8830;-77
2022/10/22 14:27:12;;;;;;;;;1.00;0.80;;;;;;;;5040533;27;8857;-77
2022/10/22 14:29:42;;;;;;;;;0.80;0.80;;;;;;;;5040134;27;8859;-77
2022/10/22 14:32:19;;;;;;;;;0.40;0.40;;;;;;;;5052849;27;8887;-77
2022/10/22 14:34:47;;;;;;;;;0.80;0.80;;;;;;;;5065828;27;9647;-78
2022/10/22 14:37:17;;;;;;;;;2.20;1.00;;;;;;;;5028681;28;8845;-78
2022/10/22 14:39:45;;;;;;;;;1.00;1.00;;;;;;;;5036883;27;8853;-78
2022/10/22 14:42:13;;;;;;;;;1.00;1.00;;;;;;;;5040054;27;8853;-78
2022/10/22 14:44:42;;;;;;;;;0.80;0.80;;;;;;;;5043933;27;8891;-77
2022/10/22 14:47:09;;;;;;;;;1.00;1.00;;;;;;;;5035885;27;8841;-77
2022/10/22 14:49:37;;;;;;;;;1.00;1.00;;;;;;;;5050157;27;8876;-78
2022/10/22 14:52:04;;;;;;;;;1.00;1.00;;;;;;;;5037351;27;8846;-78
2022/10/22 14:54:33;;;;;;;;;1.80;0.80;;;;;;;;5030817;27;8843;-77
2022/10/22 14:57:02;;;;;;;;;0.40;0.40;;;;;;;;5063954;27;8826;-77
2022/10/22 14:59:30;;;;;;;;;1.60;0.00;;;;;;;;5033046;27;8857;-76
2022/10/22 15:01:59;;;;;;;;;3.80;1.00;;;;;;;;5039263;27;8825;-77
2022/10/22 15:04:27;;;;;;;;;4.00;1.00;;;;;;;;5059036;27;8869;-77
2022/10/22 15:06:55;;;;;;;;;1.80;0.20;;;;;;;;5069007;27;8937;-78
2022/10/22 15:09:23;;;;;;;;;0.00;0.00;;;;;;;;5046324;27;8876;-77
2022/10/22 15:11:51;;;;;;;;;0.00;0.00;;;;;;;;5042213;27;8868;-77
2022/10/22 15:14:18;;;;;;;;;0.00;0.00;;;;;;;;5044644;28;8848;-76
2022/10/22 15:16:45;;;;;;;;;0.40;0.00;;;;;;;;5029825;28;8860;-77
2022/10/22 15:19:14;;;;;;;;;0.20;0.20;;;;;;;;5041387;27;8850;-77